Hlavní strana
METAR-TAF:

METAR-TAF

Letiště :

Salvador, Salvador

zeměpisná šířka: 13-26N, zeměpisná délka: 089-03W, výška: 25 m

Aktuální stav počasí

Zpráva byla vytvořena před 34 minutami, v 11:50 UTC
Severovýchodní vítr 6 kt, proměnlivý mezi severoseverovýchodním a východním
Teplota 22°C
Vlhkost vzduchu 65%
Tlak 1014 hPa
Viditelnost 10 km a více
Žádná oblačnost pod 1500 m, nevyskytují se cumulonimby.

METAR: MSLP 121150Z 05006KT 030V090 CAVOK 22/15 Q1014 A2995 NOSIG

Čas: 06:24 (12:24 UTC)

Předpověď počasí

Zpráva byla vytvořena před 2 hodinami a 59 minutami, v 09:25 UTC
Předpověď platná od 12 v 12 UTC do 13 v 12 UTC
Severoseverovýchodní vítr 15 kt s nárazy do 35 kt
Viditelnost 10 km a více
Skoro jasno ve výšce 6000 ft

TAF: MSLP 120925Z 1212/1312 03015G35KT 9999 FEW060 TX34/1218Z TN20/1312Z

Stav a předpovědi počasí z více než 4 000 letišť (zprávy METAR a TAF).

Červené a žluté tečky na mapě představují dostupné meteorologické stanice.

Když kurzor umístíte na tečku, zobrazí se název stanice.

Pak kliknutím zobrazíte stav a předpověď počasí.

Chcete-li změnit mapu, kliknutím na zelené tlačítko se znaménkem +mapu přiblížíte, kliknutím na zelené tlačítko se znaménkem – mapu oddálíte a kliknutím na zelené šipky přejdete na sousední mapy.


METAR-TAF: